Time;durP1;ratioP1;P1;durP2;ratioP2;P2;SDS_P1;SDS_P2;PMS_P1;PMS_P2;Temp;Humidity;BMP_temperature;BMP_pressure;BME280_temperature;BME280_humidity;BME280_pressure;Samples;Min_cycle;Max_cycle;Signal;HPM_P1;HPM_P2
2022/07/30 00:01:00;;;;;;;;;;;24.10;47.50;;;;;;491695;240;1133;-71
2022/07/30 00:03:01;;;;;;;;;;;24.10;47.60;;;;;;491689;240;1105;-71
2022/07/30 00:05:02;;;;;;;;;;;24.10;47.60;;;;;;491647;240;927;-71
2022/07/30 00:07:04;;;;;;;;;;;24.10;47.60;;;;;;491575;240;1298;-71
2022/07/30 00:09:05;;;;;;;;;;;24.20;47.50;;;;;;491661;240;1051;-71
2022/07/30 00:11:07;;;;;;;;;;;24.20;47.40;;;;;;491670;240;1115;-71
2022/07/30 00:13:08;;;;;;;;;;;24.20;47.40;;;;;;491700;240;2203;-71
2022/07/30 00:15:09;;;;;;;;;;;24.10;47.50;;;;;;491668;240;1167;-71
2022/07/30 00:17:10;;;;;;;;;;;24.10;47.60;;;;;;491629;240;2112;-71
2022/07/30 00:19:12;;;;;;;;;;;24.00;47.80;;;;;;491605;240;1136;-71
2022/07/30 00:21:13;;;;;;;;;;;24.00;47.80;;;;;;491653;240;1383;-71
2022/07/30 00:23:14;;;;;;;;;;;24.00;47.70;;;;;;491628;240;1185;-71
2022/07/30 00:25:16;;;;;;;;;;;24.00;47.70;;;;;;491563;240;1188;-71
2022/07/30 00:27:17;;;;;;;;;;;24.00;47.60;;;;;;491643;240;1304;-71
2022/07/30 00:29:18;;;;;;;;;;;24.00;47.70;;;;;;491606;240;1276;-71
2022/07/30 00:31:20;;;;;;;;;;;24.00;47.60;;;;;;491530;240;1178;-71
2022/07/30 00:33:21;;;;;;;;;;;24.00;47.60;;;;;;491552;240;1303;-71
2022/07/30 00:35:22;;;;;;;;;;;24.10;47.60;;;;;;491622;240;2198;-71
2022/07/30 00:37:24;;;;;;;;;;;24.10;47.50;;;;;;491553;240;1162;-71
2022/07/30 00:39:28;;;;;;;;;;;24.10;47.60;;;;;;491701;240;1318;-72
2022/07/30 00:41:26;;;;;;;;;;;24.10;47.50;;;;;;491649;240;2150;-71
2022/07/30 00:43:28;;;;;;;;;;;24.10;47.50;;;;;;491638;240;1178;-71
2022/07/30 00:45:29;;;;;;;;;;;24.10;47.60;;;;;;491675;240;1202;-71
2022/07/30 00:47:30;;;;;;;;;;;24.10;47.50;;;;;;491667;240;1107;-71
2022/07/30 00:49:32;;;;;;;;;;;24.00;47.60;;;;;;491647;240;1234;-71
2022/07/30 00:51:33;;;;;;;;;;;24.00;47.60;;;;;;491603;240;1190;-71
2022/07/30 00:53:34;;;;;;;;;;;24.10;47.50;;;;;;491651;240;1183;-71
2022/07/30 00:55:36;;;;;;;;;;;24.00;47.70;;;;;;491640;240;2129;-71
2022/07/30 00:57:37;;;;;;;;;;;23.90;47.80;;;;;;491696;240;1219;-71
2022/07/30 00:59:38;;;;;;;;;;;23.90;47.90;;;;;;491583;240;1278;-71
2022/07/30 01:01:40;;;;;;;;;;;23.90;48.00;;;;;;491726;240;2507;-71
2022/07/30 01:03:41;;;;;;;;;;;23.90;48.00;;;;;;491689;240;960;-71
2022/07/30 01:05:42;;;;;;;;;;;23.90;48.00;;;;;;491699;240;1063;-71
2022/07/30 01:07:44;;;;;;;;;;;23.90;48.00;;;;;;491638;240;993;-71
2022/07/30 01:09:45;;;;;;;;;;;23.90;48.00;;;;;;491664;240;977;-71
2022/07/30 01:11:46;;;;;;;;;;;23.80;48.10;;;;;;491676;240;1013;-71
2022/07/30 01:13:48;;;;;;;;;;;23.80;48.20;;;;;;491683;240;952;-71
2022/07/30 01:15:49;;;;;;;;;;;23.80;48.10;;;;;;491653;240;2192;-71
2022/07/30 01:17:50;;;;;;;;;;;23.80;48.10;;;;;;491636;240;995;-71
2022/07/30 01:19:52;;;;;;;;;;;23.90;48.10;;;;;;491654;240;1033;-71
2022/07/30 01:21:53;;;;;;;;;;;23.90;48.00;;;;;;491629;240;1168;-71
2022/07/30 01:23:54;;;;;;;;;;;23.90;48.00;;;;;;491687;240;1034;-71
2022/07/30 01:25:56;;;;;;;;;;;23.80;48.10;;;;;;491650;240;1230;-71
2022/07/30 01:27:57;;;;;;;;;;;23.80;48.20;;;;;;491688;240;1213;-71
2022/07/30 01:29:58;;;;;;;;;;;23.80;48.20;;;;;;491680;240;1239;-71
2022/07/30 01:32:00;;;;;;;;;;;23.70;48.20;;;;;;491653;240;1131;-71
2022/07/30 01:34:01;;;;;;;;;;;23.70;48.20;;;;;;491670;240;944;-71
2022/07/30 01:36:02;;;;;;;;;;;23.70;48.20;;;;;;491731;240;2183;-71
2022/07/30 01:38:04;;;;;;;;;;;23.80;48.10;;;;;;491706;240;1046;-71
2022/07/30 01:40:05;;;;;;;;;;;23.80;48.20;;;;;;491680;240;910;-71
2022/07/30 01:42:07;;;;;;;;;;;23.70;48.20;;;;;;491678;240;1187;-71
2022/07/30 01:44:08;;;;;;;;;;;23.70;48.30;;;;;;491686;240;2207;-71
2022/07/30 01:46:09;;;;;;;;;;;23.70;48.40;;;;;;491672;240;1265;-71
2022/07/30 01:48:10;;;;;;;;;;;23.70;48.50;;;;;;491623;240;1123;-71
2022/07/30 01:50:13;;;;;;;;;;;23.60;48.40;;;;;;491640;240;1426;-71
2022/07/30 01:52:14;;;;;;;;;;;23.70;48.30;;;;;;491672;240;1218;-71
2022/07/30 01:54:15;;;;;;;;;;;23.70;48.20;;;;;;491719;240;1198;-71
2022/07/30 01:56:16;;;;;;;;;;;23.70;48.20;;;;;;491618;240;2208;-71
2022/07/30 01:58:18;;;;;;;;;;;23.70;48.20;;;;;;491605;240;1170;-72
2022/07/30 02:00:20;;;;;;;;;;;23.70;48.20;;;;;;491624;240;1244;-73
2022/07/30 02:02:21;;;;;;;;;;;23.70;48.30;;;;;;491602;240;1081;-73
2022/07/30 02:04:22;;;;;;;;;;;23.70;48.40;;;;;;491638;240;1072;-73
2022/07/30 02:06:24;;;;;;;;;;;23.60;48.50;;;;;;491616;240;1235;-73
2022/07/30 02:08:25;;;;;;;;;;;23.60;48.60;;;;;;491641;240;1210;-73
2022/07/30 02:10:26;;;;;;;;;;;23.50;48.60;;;;;;491718;240;1236;-73
2022/07/30 02:12:28;;;;;;;;;;;23.50;48.60;;;;;;491618;240;1298;-73
2022/07/30 02:14:29;;;;;;;;;;;23.50;48.70;;;;;;491691;240;1185;-73
2022/07/30 02:16:30;;;;;;;;;;;23.50;48.60;;;;;;491607;240;2204;-73
2022/07/30 02:18:32;;;;;;;;;;;23.50;48.70;;;;;;491690;240;1193;-73
2022/07/30 02:20:33;;;;;;;;;;;23.40;48.70;;;;;;491698;240;1157;-73
2022/07/30 02:22:34;;;;;;;;;;;23.50;48.60;;;;;;491600;240;1059;-73
2022/07/30 02:24:36;;;;;;;;;;;23.60;48.50;;;;;;491657;240;1110;-73
2022/07/30 02:26:37;;;;;;;;;;;23.60;48.40;;;;;;491672;240;1064;-73
2022/07/30 02:28:38;;;;;;;;;;;23.60;48.30;;;;;;491702;240;1099;-73
2022/07/30 02:30:40;;;;;;;;;;;23.60;48.30;;;;;;491666;240;1162;-73
2022/07/30 02:32:41;;;;;;;;;;;23.60;48.40;;;;;;491629;240;1133;-73
2022/07/30 02:34:42;;;;;;;;;;;23.60;48.60;;;;;;491644;240;1175;-73
2022/07/30 02:36:44;;;;;;;;;;;23.60;48.40;;;;;;491631;240;2104;-73
2022/07/30 02:38:45;;;;;;;;;;;23.60;48.30;;;;;;491602;240;1012;-73
2022/07/30 02:40:46;;;;;;;;;;;23.60;48.20;;;;;;491627;240;1071;-73
2022/07/30 02:42:48;;;;;;;;;;;23.60;48.30;;;;;;491619;240;1201;-73
2022/07/30 02:44:49;;;;;;;;;;;23.60;48.20;;;;;;491679;240;1197;-73
2022/07/30 02:46:50;;;;;;;;;;;23.60;48.20;;;;;;491663;240;1307;-73
2022/07/30 02:48:52;;;;;;;;;;;23.60;48.20;;;;;;491666;240;1124;-73
2022/07/30 02:50:53;;;;;;;;;;;23.60;48.20;;;;;;491658;240;1118;-73
2022/07/30 02:52:54;;;;;;;;;;;23.60;48.20;;;;;;491612;240;1192;-73
2022/07/30 02:54:56;;;;;;;;;;;23.60;48.20;;;;;;491624;240;1107;-73
2022/07/30 02:56:57;;;;;;;;;;;23.60;48.20;;;;;;491628;240;2116;-73
2022/07/30 02:58:58;;;;;;;;;;;23.60;48.30;;;;;;491602;240;1173;-73
2022/07/30 03:01:00;;;;;;;;;;;23.60;48.30;;;;;;491709;240;1242;-73
2022/07/30 03:03:01;;;;;;;;;;;23.60;48.30;;;;;;491712;240;1334;-73
2022/07/30 03:05:03;;;;;;;;;;;23.60;48.40;;;;;;491629;240;1104;-73
2022/07/30 03:07:04;;;;;;;;;;;23.60;48.30;;;;;;491591;240;1139;-73
2022/07/30 03:09:05;;;;;;;;;;;23.60;48.50;;;;;;491616;240;1092;-73
2022/07/30 03:11:07;;;;;;;;;;;23.50;48.40;;;;;;491627;240;1157;-73
2022/07/30 03:13:08;;;;;;;;;;;23.50;48.40;;;;;;491648;240;1156;-73
2022/07/30 03:15:09;;;;;;;;;;;23.50;48.40;;;;;;491672;240;1355;-73
2022/07/30 03:17:11;;;;;;;;;;;23.60;48.40;;;;;;491698;240;2196;-73
2022/07/30 03:19:12;;;;;;;;;;;23.60;48.30;;;;;;491709;240;974;-73
2022/07/30 03:21:13;;;;;;;;;;;23.50;48.30;;;;;;491676;240;1301;-73
2022/07/30 03:23:15;;;;;;;;;;;23.60;48.30;;;;;;491662;240;1231;-73
2022/07/30 03:25:16;;;;;;;;;;;23.60;48.20;;;;;;491690;240;1078;-73
2022/07/30 03:27:17;;;;;;;;;;;23.70;48.30;;;;;;491672;240;994;-73
2022/07/30 03:29:18;;;;;;;;;;;23.60;48.20;;;;;;491666;240;933;-73
2022/07/30 03:31:20;;;;;;;;;;;23.60;48.20;;;;;;491676;240;1308;-73
2022/07/30 03:33:21;;;;;;;;;;;23.60;48.20;;;;;;491635;240;1038;-73
2022/07/30 03:35:23;;;;;;;;;;;23.60;48.20;;;;;;491713;240;954;-73
2022/07/30 03:37:25;;;;;;;;;;;23.60;48.20;;;;;;491654;240;2195;-73
2022/07/30 03:39:26;;;;;;;;;;;23.60;48.30;;;;;;491722;240;1216;-73
2022/07/30 03:41:27;;;;;;;;;;;23.60;48.30;;;;;;491637;240;1168;-73
2022/07/30 03:43:29;;;;;;;;;;;23.50;48.40;;;;;;491646;240;1184;-73
2022/07/30 03:45:30;;;;;;;;;;;23.60;48.20;;;;;;491645;240;1110;-73
2022/07/30 03:47:31;;;;;;;;;;;23.60;48.20;;;;;;491672;240;1208;-73
2022/07/30 03:49:33;;;;;;;;;;;23.60;48.10;;;;;;491688;240;1128;-73
2022/07/30 03:51:34;;;;;;;;;;;23.60;48.10;;;;;;491601;240;1262;-73
2022/07/30 03:53:35;;;;;;;;;;;23.70;48.10;;;;;;491636;240;1217;-73
2022/07/30 03:55:37;;;;;;;;;;;23.60;48.10;;;;;;491630;240;1109;-73
2022/07/30 03:57:38;;;;;;;;;;;23.60;48.20;;;;;;491624;240;2184;-73
2022/07/30 03:59:39;;;;;;;;;;;23.60;48.30;;;;;;491683;240;1146;-73
2022/07/30 04:01:41;;;;;;;;;;;23.60;48.20;;;;;;491615;240;1109;-73
2022/07/30 04:03:42;;;;;;;;;;;23.60;48.10;;;;;;491649;240;1245;-73
2022/07/30 04:05:43;;;;;;;;;;;23.60;48.20;;;;;;491717;240;1141;-73
2022/07/30 04:07:45;;;;;;;;;;;23.60;48.10;;;;;;491618;240;1263;-73
2022/07/30 04:09:46;;;;;;;;;;;23.60;48.10;;;;;;491671;240;1197;-73
2022/07/30 04:11:47;;;;;;;;;;;23.60;48.20;;;;;;491648;240;1227;-73
2022/07/30 04:13:49;;;;;;;;;;;23.60;48.20;;;;;;491678;240;1212;-73
2022/07/30 04:15:50;;;;;;;;;;;23.60;48.20;;;;;;491637;240;1170;-73
2022/07/30 04:17:51;;;;;;;;;;;23.60;48.20;;;;;;491624;240;2140;-73
2022/07/30 04:19:53;;;;;;;;;;;23.60;48.30;;;;;;491661;240;1118;-73
2022/07/30 04:21:54;;;;;;;;;;;23.60;48.20;;;;;;491614;240;1594;-73
2022/07/30 04:23:55;;;;;;;;;;;23.60;48.10;;;;;;491706;240;1065;-73
2022/07/30 04:25:57;;;;;;;;;;;23.60;48.10;;;;;;491649;240;1305;-73
2022/07/30 04:27:58;;;;;;;;;;;23.70;48.10;;;;;;491709;240;1097;-72
2022/07/30 04:29:59;;;;;;;;;;;23.70;48.10;;;;;;491698;240;1154;-73
2022/07/30 04:32:01;;;;;;;;;;;23.70;48.10;;;;;;491578;240;1297;-73
2022/07/30 04:34:02;;;;;;;;;;;23.60;48.10;;;;;;491621;240;1145;-73
2022/07/30 04:36:03;;;;;;;;;;;23.60;48.10;;;;;;491599;240;1199;-73
2022/07/30 04:38:05;;;;;;;;;;;23.60;48.10;;;;;;491625;240;2179;-73
2022/07/30 04:40:06;;;;;;;;;;;23.70;48.00;;;;;;491690;240;1117;-73
2022/07/30 04:42:08;;;;;;;;;;;23.70;48.00;;;;;;491655;240;1267;-73
2022/07/30 04:44:09;;;;;;;;;;;23.70;48.00;;;;;;491672;240;1212;-73
2022/07/30 04:46:10;;;;;;;;;;;23.70;47.90;;;;;;491585;240;1265;-73
2022/07/30 04:48:12;;;;;;;;;;;23.70;48.00;;;;;;491559;240;1254;-73
2022/07/30 04:50:13;;;;;;;;;;;23.70;48.00;;;;;;491611;240;1237;-73
2022/07/30 04:52:14;;;;;;;;;;;23.70;48.10;;;;;;491544;240;1140;-73
2022/07/30 04:54:15;;;;;;;;;;;23.60;48.10;;;;;;491624;240;1164;-73
2022/07/30 04:56:17;;;;;;;;;;;23.70;48.10;;;;;;491648;240;1110;-73
2022/07/30 04:58:18;;;;;;;;;;;23.70;47.90;;;;;;491576;240;2191;-73
2022/07/30 05:00:19;;;;;;;;;;;23.70;47.90;;;;;;491613;240;1149;-73
2022/07/30 05:02:21;;;;;;;;;;;23.70;47.90;;;;;;491590;240;1211;-73
2022/07/30 05:04:22;;;;;;;;;;;23.70;48.00;;;;;;491688;240;1162;-72
2022/07/30 05:06:24;;;;;;;;;;;23.60;48.10;;;;;;491679;240;1098;-72
2022/07/30 05:08:25;;;;;;;;;;;23.70;47.90;;;;;;491608;240;1102;-73
2022/07/30 05:10:26;;;;;;;;;;;23.60;48.20;;;;;;491662;240;1107;-73
2022/07/30 05:12:27;;;;;;;;;;;23.60;48.10;;;;;;491702;240;1149;-73
2022/07/30 05:14:29;;;;;;;;;;;23.60;48.10;;;;;;491686;240;1259;-73
2022/07/30 05:16:32;;;;;;;;;;;23.60;48.10;;;;;;491662;240;1146;-73
2022/07/30 05:18:31;;;;;;;;;;;23.70;48.00;;;;;;491616;240;2120;-73
2022/07/30 05:20:33;;;;;;;;;;;23.70;48.00;;;;;;491591;240;1064;-73
2022/07/30 05:22:34;;;;;;;;;;;23.70;48.00;;;;;;491689;240;1126;-73
2022/07/30 05:24:35;;;;;;;;;;;23.70;48.00;;;;;;491626;240;1205;-73
2022/07/30 05:26:37;;;;;;;;;;;23.70;48.10;;;;;;491640;240;1119;-73
2022/07/30 05:28:38;;;;;;;;;;;23.70;48.10;;;;;;491644;240;1199;-73
2022/07/30 05:30:39;;;;;;;;;;;23.60;48.30;;;;;;491616;240;1249;-73
2022/07/30 05:32:42;;;;;;;;;;;23.60;48.40;;;;;;491638;240;1142;-73
2022/07/30 05:34:42;;;;;;;;;;;23.50;48.60;;;;;;491702;240;2237;-73
2022/07/30 05:36:44;;;;;;;;;;;23.40;48.80;;;;;;491671;240;1107;-73
2022/07/30 05:38:45;;;;;;;;;;;23.30;48.80;;;;;;491605;240;2105;-73
2022/07/30 05:40:46;;;;;;;;;;;23.30;48.90;;;;;;491603;240;1295;-73
2022/07/30 05:42:48;;;;;;;;;;;23.20;49.00;;;;;;491717;240;1062;-73
2022/07/30 05:44:49;;;;;;;;;;;23.20;49.20;;;;;;491702;240;1183;-73
2022/07/30 05:46:50;;;;;;;;;;;23.20;49.30;;;;;;491638;240;1961;-73
2022/07/30 05:48:52;;;;;;;;;;;23.20;49.40;;;;;;491728;240;1241;-73
2022/07/30 05:50:53;;;;;;;;;;;23.20;49.30;;;;;;491598;240;1435;-73
2022/07/30 05:52:57;;;;;;;;;;;23.20;49.20;;;;;;491573;240;1230;-73
2022/07/30 05:54:56;;;;;;;;;;;23.30;49.00;;;;;;491590;240;2106;-73
2022/07/30 05:56:57;;;;;;;;;;;23.40;49.00;;;;;;491555;240;1087;-73
2022/07/30 05:58:59;;;;;;;;;;;23.40;48.80;;;;;;491596;240;2184;-73
2022/07/30 06:01:00;;;;;;;;;;;23.50;48.70;;;;;;491535;240;1303;-73
2022/07/30 06:03:01;;;;;;;;;;;23.50;48.50;;;;;;491594;240;1246;-73
2022/07/30 06:05:03;;;;;;;;;;;23.50;48.40;;;;;;491636;240;1151;-73
2022/07/30 06:07:04;;;;;;;;;;;23.60;48.40;;;;;;491553;240;1276;-73
2022/07/30 06:09:05;;;;;;;;;;;23.70;48.20;;;;;;491612;240;1111;-73
2022/07/30 06:11:08;;;;;;;;;;;23.70;48.20;;;;;;491556;240;1221;-73
2022/07/30 06:13:09;;;;;;;;;;;23.60;48.20;;;;;;491654;240;1110;-73
2022/07/30 06:15:11;;;;;;;;;;;23.60;48.20;;;;;;491577;240;1158;-73
2022/07/30 06:17:12;;;;;;;;;;;23.60;48.30;;;;;;491543;240;1225;-73
2022/07/30 06:19:13;;;;;;;;;;;23.70;48.30;;;;;;491561;240;2173;-73
2022/07/30 06:21:15;;;;;;;;;;;23.70;48.10;;;;;;491585;240;1168;-73
2022/07/30 06:23:16;;;;;;;;;;;23.70;48.00;;;;;;491641;240;1118;-73
2022/07/30 06:25:17;;;;;;;;;;;23.70;48.00;;;;;;491690;240;1293;-73
2022/07/30 06:27:19;;;;;;;;;;;23.70;48.00;;;;;;491632;240;1095;-73
2022/07/30 06:29:20;;;;;;;;;;;23.70;48.10;;;;;;491649;240;1158;-73
2022/07/30 06:31:21;;;;;;;;;;;23.70;48.10;;;;;;491631;240;1395;-73
2022/07/30 06:33:23;;;;;;;;;;;23.70;48.00;;;;;;491662;240;1214;-73
2022/07/30 06:35:24;;;;;;;;;;;23.70;48.10;;;;;;491671;240;1123;-73
2022/07/30 06:37:25;;;;;;;;;;;23.70;48.10;;;;;;491570;240;1238;-73
2022/07/30 06:39:27;;;;;;;;;;;23.60;48.20;;;;;;491642;240;2117;-73
2022/07/30 06:41:28;;;;;;;;;;;23.70;48.20;;;;;;491670;240;1011;-73
2022/07/30 06:43:29;;;;;;;;;;;23.60;48.30;;;;;;491649;240;1130;-73
2022/07/30 06:45:31;;;;;;;;;;;23.60;48.40;;;;;;491638;240;1681;-73
2022/07/30 06:47:33;;;;;;;;;;;23.60;48.30;;;;;;491659;240;1142;-73
2022/07/30 06:49:33;;;;;;;;;;;23.60;48.30;;;;;;491655;240;1445;-73
2022/07/30 06:51:35;;;;;;;;;;;23.60;48.40;;;;;;491631;240;1242;-73
2022/07/30 06:53:36;;;;;;;;;;;23.60;48.30;;;;;;491681;240;1246;-73
2022/07/30 06:55:38;;;;;;;;;;;23.60;48.30;;;;;;491725;240;1343;-73
2022/07/30 06:57:39;;;;;;;;;;;23.60;48.40;;;;;;491679;240;2160;-73
2022/07/30 06:59:40;;;;;;;;;;;23.70;48.30;;;;;;491586;240;1142;-73
2022/07/30 07:01:42;;;;;;;;;;;23.70;48.30;;;;;;491714;240;1136;-73
2022/07/30 07:03:43;;;;;;;;;;;23.70;48.30;;;;;;491686;240;1212;-73
2022/07/30 07:05:44;;;;;;;;;;;23.60;48.30;;;;;;491646;240;1036;-73
2022/07/30 07:07:46;;;;;;;;;;;23.60;48.40;;;;;;491644;240;941;-73
2022/07/30 07:09:47;;;;;;;;;;;23.70;48.30;;;;;;491668;240;954;-73
2022/07/30 07:11:48;;;;;;;;;;;23.70;48.30;;;;;;491651;240;1207;-73
2022/07/30 07:13:50;;;;;;;;;;;23.60;48.30;;;;;;491665;240;2343;-73
2022/07/30 07:15:51;;;;;;;;;;;23.70;48.40;;;;;;491703;240;1161;-73
2022/07/30 07:17:52;;;;;;;;;;;23.70;48.30;;;;;;491638;240;2192;-73
2022/07/30 07:19:54;;;;;;;;;;;23.70;48.30;;;;;;491653;240;1183;-73
2022/07/30 07:21:55;;;;;;;;;;;23.70;48.20;;;;;;491649;240;1219;-73
2022/07/30 07:23:59;;;;;;;;;;;23.70;48.30;;;;;;491651;240;1186;-73
2022/07/30 07:25:58;;;;;;;;;;;23.70;48.30;;;;;;491731;240;2108;-73
2022/07/30 07:27:59;;;;;;;;;;;23.70;48.40;;;;;;491599;240;1133;-72
2022/07/30 07:30:00;;;;;;;;;;;23.70;48.40;;;;;;491662;240;1113;-73
2022/07/30 07:32:02;;;;;;;;;;;23.70;48.40;;;;;;491545;240;1203;-73
2022/07/30 07:34:03;;;;;;;;;;;23.60;48.50;;;;;;491698;240;1196;-73
2022/07/30 07:36:04;;;;;;;;;;;23.60;48.60;;;;;;491640;240;1287;-73
2022/07/30 07:38:06;;;;;;;;;;;23.70;48.60;;;;;;491574;240;2129;-73
2022/07/30 07:40:07;;;;;;;;;;;23.70;48.50;;;;;;491681;240;1117;-73
2022/07/30 07:42:08;;;;;;;;;;;23.70;48.50;;;;;;491705;240;1231;-73
2022/07/30 07:44:10;;;;;;;;;;;23.70;48.40;;;;;;491753;240;1118;-73
2022/07/30 07:46:15;;;;;;;;;;;23.70;48.50;;;;;;491737;240;1101;-73
2022/07/30 07:48:13;;;;;;;;;;;23.70;48.60;;;;;;491680;240;1528;-73
2022/07/30 07:50:14;;;;;;;;;;;23.70;48.50;;;;;;491673;240;1177;-73
2022/07/30 07:52:15;;;;;;;;;;;23.70;48.50;;;;;;491688;240;1199;-73
2022/07/30 07:54:17;;;;;;;;;;;23.70;48.50;;;;;;491676;240;939;-73
2022/07/30 07:56:19;;;;;;;;;;;23.70;48.50;;;;;;491654;240;1388;-73
2022/07/30 07:58:19;;;;;;;;;;;23.70;48.50;;;;;;491627;240;2117;-73
2022/07/30 08:00:21;;;;;;;;;;;23.70;48.40;;;;;;491612;240;1128;-73
2022/07/30 08:02:22;;;;;;;;;;;23.70;48.50;;;;;;491645;240;1363;-73
2022/07/30 08:04:24;;;;;;;;;;;23.60;48.60;;;;;;491681;240;1649;-73
2022/07/30 08:06:25;;;;;;;;;;;23.60;48.70;;;;;;491714;240;1240;-73
2022/07/30 08:08:26;;;;;;;;;;;23.60;48.70;;;;;;491543;240;1071;-73
2022/07/30 08:10:27;;;;;;;;;;;23.60;48.70;;;;;;491587;240;1312;-73
2022/07/30 08:12:29;;;;;;;;;;;23.60;48.80;;;;;;491527;240;1299;-73
2022/07/30 08:14:30;;;;;;;;;;;23.60;48.80;;;;;;491577;240;1096;-73
2022/07/30 08:16:31;;;;;;;;;;;23.60;48.90;;;;;;491593;240;1143;-73
2022/07/30 08:18:33;;;;;;;;;;;23.50;48.90;;;;;;491570;240;2187;-73
2022/07/30 08:20:34;;;;;;;;;;;23.60;49.00;;;;;;491585;240;1202;-73
2022/07/30 08:22:36;;;;;;;;;;;23.60;49.00;;;;;;491553;240;1218;-73
2022/07/30 08:24:37;;;;;;;;;;;23.60;49.00;;;;;;491649;240;1106;-73
2022/07/30 08:26:38;;;;;;;;;;;23.60;48.90;;;;;;491559;240;1139;-73
2022/07/30 08:28:41;;;;;;;;;;;23.60;49.00;;;;;;491660;240;1110;-73
2022/07/30 08:30:41;;;;;;;;;;;23.60;49.00;;;;;;491597;240;2190;-73
2022/07/30 08:32:42;;;;;;;;;;;23.60;48.90;;;;;;491648;240;1212;-73
2022/07/30 08:34:44;;;;;;;;;;;23.60;48.80;;;;;;491620;240;1222;-73
2022/07/30 08:36:45;;;;;;;;;;;23.70;48.80;;;;;;491664;240;1223;-73
2022/07/30 08:38:46;;;;;;;;;;;23.70;48.70;;;;;;491604;240;2137;-73
2022/07/30 08:40:48;;;;;;;;;;;23.70;48.80;;;;;;491693;240;1198;-73
2022/07/30 08:42:49;;;;;;;;;;;23.60;48.80;;;;;;491626;240;939;-73
2022/07/30 08:44:50;;;;;;;;;;;23.60;48.90;;;;;;491655;240;946;-73
2022/07/30 08:46:55;;;;;;;;;;;23.60;48.90;;;;;;491616;240;1200;-73
2022/07/30 08:48:53;;;;;;;;;;;23.70;48.80;;;;;;491770;240;2222;-73
2022/07/30 08:50:55;;;;;;;;;;;23.60;48.80;;;;;;491657;240;1177;-73
2022/07/30 08:52:56;;;;;;;;;;;23.60;48.90;;;;;;491663;240;1238;-73
2022/07/30 08:54:57;;;;;;;;;;;23.70;48.90;;;;;;491815;240;1182;-73
2022/07/30 08:56:59;;;;;;;;;;;23.60;48.90;;;;;;491638;240;1166;-73
2022/07/30 08:59:00;;;;;;;;;;;23.70;48.80;;;;;;491638;240;2179;-73
2022/07/30 09:01:01;;;;;;;;;;;23.80;48.70;;;;;;491726;240;1086;-73
2022/07/30 09:03:03;;;;;;;;;;;23.70;48.70;;;;;;491706;240;1206;-73
2022/07/30 09:05:04;;;;;;;;;;;23.80;48.80;;;;;;491595;240;1201;-73
2022/07/30 09:07:05;;;;;;;;;;;23.70;48.70;;;;;;491571;240;1162;-73
2022/07/30 09:09:07;;;;;;;;;;;23.80;48.70;;;;;;491654;240;1237;-73
2022/07/30 09:11:08;;;;;;;;;;;23.80;48.60;;;;;;491659;240;981;-73
2022/07/30 09:13:09;;;;;;;;;;;23.70;48.60;;;;;;491650;240;1162;-73
2022/07/30 09:15:11;;;;;;;;;;;23.70;48.70;;;;;;491592;240;1214;-73
2022/07/30 09:17:12;;;;;;;;;;;23.70;48.80;;;;;;491620;240;1098;-73
2022/07/30 09:19:13;;;;;;;;;;;23.80;48.70;;;;;;491619;240;2125;-73
2022/07/30 09:21:15;;;;;;;;;;;23.70;48.70;;;;;;491567;240;1163;-73
2022/07/30 09:23:16;;;;;;;;;;;23.80;48.70;;;;;;491627;240;1189;-73
2022/07/30 09:25:17;;;;;;;;;;;23.80;48.60;;;;;;491573;240;1187;-73
2022/07/30 09:27:19;;;;;;;;;;;23.80;48.70;;;;;;491613;240;1157;-73
2022/07/30 09:29:20;;;;;;;;;;;23.80;48.60;;;;;;491660;240;1179;-73
2022/07/30 09:31:21;;;;;;;;;;;23.80;48.60;;;;;;491687;240;1061;-73
2022/07/30 09:33:23;;;;;;;;;;;23.80;48.60;;;;;;491616;240;1070;-73
2022/07/30 09:35:24;;;;;;;;;;;23.80;48.60;;;;;;491616;240;1195;-73
2022/07/30 09:37:25;;;;;;;;;;;23.80;48.60;;;;;;491569;240;1108;-73
2022/07/30 09:39:27;;;;;;;;;;;23.80;48.60;;;;;;491609;240;2176;-73
2022/07/30 09:41:28;;;;;;;;;;;23.90;48.60;;;;;;491579;240;1082;-73
2022/07/30 09:43:29;;;;;;;;;;;23.80;48.50;;;;;;491591;240;1080;-73
2022/07/30 09:45:31;;;;;;;;;;;23.90;48.50;;;;;;491590;240;1169;-73
2022/07/30 09:47:32;;;;;;;;;;;23.80;48.60;;;;;;491637;240;1158;-73
2022/07/30 09:49:33;;;;;;;;;;;23.80;48.60;;;;;;491678;240;951;-73
2022/07/30 09:51:35;;;;;;;;;;;23.80;48.50;;;;;;491611;242;1294;-73
2022/07/30 09:53:36;;;;;;;;;;;23.90;48.50;;;;;;491590;240;986;-73
2022/07/30 09:55:37;;;;;;;;;;;23.90;48.40;;;;;;491637;240;1357;-73
2022/07/30 09:57:39;;;;;;;;;;;24.00;48.30;;;;;;491734;240;1083;-73
2022/07/30 09:59:40;;;;;;;;;;;23.90;48.30;;;;;;491625;240;2191;-73
2022/07/30 10:01:41;;;;;;;;;;;23.90;48.40;;;;;;491641;240;1229;-73
2022/07/30 10:03:43;;;;;;;;;;;23.80;48.50;;;;;;491662;240;1153;-73
2022/07/30 10:05:44;;;;;;;;;;;23.80;48.50;;;;;;491575;240;1215;-73
2022/07/30 10:07:45;;;;;;;;;;;23.80;48.50;;;;;;491537;240;1139;-73
2022/07/30 10:09:47;;;;;;;;;;;23.80;48.40;;;;;;491659;240;1131;-73
2022/07/30 10:11:48;;;;;;;;;;;23.90;48.40;;;;;;491565;240;1158;-73
2022/07/30 10:13:49;;;;;;;;;;;23.80;48.40;;;;;;491697;240;1143;-73
2022/07/30 10:15:51;;;;;;;;;;;23.80;48.40;;;;;;491667;240;1203;-73
2022/07/30 10:17:52;;;;;;;;;;;23.80;48.50;;;;;;491609;240;1145;-73
2022/07/30 10:19:53;;;;;;;;;;;23.80;48.30;;;;;;491641;240;2188;-73
2022/07/30 10:21:56;;;;;;;;;;;23.90;48.30;;;;;;491633;240;1200;-73
2022/07/30 10:23:56;;;;;;;;;;;23.80;48.20;;;;;;491730;240;2014;-73
2022/07/30 10:25:57;;;;;;;;;;;23.90;48.20;;;;;;491650;240;1157;-73
2022/07/30 10:27:59;;;;;;;;;;;23.90;48.20;;;;;;491597;240;1124;-73
2022/07/30 10:30:00;;;;;;;;;;;23.80;48.20;;;;;;491571;240;1276;-73
2022/07/30 10:32:02;;;;;;;;;;;23.80;48.30;;;;;;491529;240;1142;-73
2022/07/30 10:34:03;;;;;;;;;;;23.80;48.20;;;;;;491642;240;1137;-73
2022/07/30 10:36:05;;;;;;;;;;;23.90;48.10;;;;;;491622;240;1204;-73
2022/07/30 10:38:06;;;;;;;;;;;23.90;48.10;;;;;;491575;240;1059;-73
2022/07/30 10:40:07;;;;;;;;;;;23.90;48.00;;;;;;491620;240;2137;-73
2022/07/30 10:42:09;;;;;;;;;;;23.90;48.00;;;;;;491584;240;1278;-73
2022/07/30 10:44:10;;;;;;;;;;;24.00;48.00;;;;;;491587;240;1189;-73
2022/07/30 10:46:11;;;;;;;;;;;23.90;48.00;;;;;;491658;240;1221;-73
2022/07/30 10:48:13;;;;;;;;;;;23.90;47.90;;;;;;491569;240;1175;-73
2022/07/30 10:50:14;;;;;;;;;;;23.90;47.90;;;;;;491636;240;1045;-73
2022/07/30 10:52:15;;;;;;;;;;;23.90;47.90;;;;;;491595;240;1210;-72
2022/07/30 10:54:17;;;;;;;;;;;23.80;47.90;;;;;;491670;240;982;-73
2022/07/30 10:56:18;;;;;;;;;;;23.90;47.90;;;;;;491661;240;972;-73
2022/07/30 10:58:19;;;;;;;;;;;23.80;47.90;;;;;;491699;240;1097;-73
2022/07/30 11:00:21;;;;;;;;;;;23.90;47.80;;;;;;491699;240;2468;-73
2022/07/30 11:02:22;;;;;;;;;;;23.90;47.60;;;;;;491637;240;1141;-73
2022/07/30 11:04:23;;;;;;;;;;;23.90;47.60;;;;;;491607;240;1141;-73
2022/07/30 11:06:26;;;;;;;;;;;24.00;47.60;;;;;;491627;240;1199;-73
2022/07/30 11:08:27;;;;;;;;;;;23.90;47.60;;;;;;491516;240;1210;-73
2022/07/30 11:10:28;;;;;;;;;;;23.90;47.70;;;;;;491611;240;1231;-73
2022/07/30 11:12:30;;;;;;;;;;;23.90;47.80;;;;;;491612;240;1348;-73
2022/07/30 11:14:31;;;;;;;;;;;23.90;47.70;;;;;;491613;240;1215;-73
2022/07/30 11:16:33;;;;;;;;;;;23.90;47.70;;;;;;491588;240;1163;-73
2022/07/30 11:18:34;;;;;;;;;;;23.80;47.70;;;;;;491613;240;1220;-73
2022/07/30 11:20:35;;;;;;;;;;;23.90;47.70;;;;;;491565;240;2121;-73
2022/07/30 11:22:39;;;;;;;;;;;23.90;47.60;;;;;;491570;240;1254;-73
2022/07/30 11:24:39;;;;;;;;;;;23.90;47.50;;;;;;491633;240;2172;-73
2022/07/30 11:26:41;;;;;;;;;;;23.90;47.50;;;;;;491614;240;1322;-73
2022/07/30 11:28:42;;;;;;;;;;;23.90;47.50;;;;;;491656;240;1127;-72
2022/07/30 11:30:43;;;;;;;;;;;23.90;47.50;;;;;;491698;240;1164;-73
2022/07/30 11:32:45;;;;;;;;;;;23.90;47.30;;;;;;491687;240;1107;-73
2022/07/30 11:34:46;;;;;;;;;;;23.80;47.30;;;;;;491659;240;1152;-73
2022/07/30 11:36:47;;;;;;;;;;;23.90;47.40;;;;;;491610;240;1196;-73
2022/07/30 11:38:49;;;;;;;;;;;23.90;47.20;;;;;;491655;240;1078;-73
2022/07/30 11:40:50;;;;;;;;;;;23.90;47.30;;;;;;491654;240;2179;-73
2022/07/30 11:42:51;;;;;;;;;;;23.90;47.30;;;;;;491634;240;1136;-73
2022/07/30 11:44:52;;;;;;;;;;;23.90;47.20;;;;;;491632;240;1128;-73
2022/07/30 11:46:54;;;;;;;;;;;23.90;47.10;;;;;;491627;240;1390;-73
2022/07/30 11:48:55;;;;;;;;;;;23.90;47.10;;;;;;491633;240;1241;-73
2022/07/30 11:50:57;;;;;;;;;;;23.90;47.10;;;;;;491642;240;1335;-73
2022/07/30 11:52:58;;;;;;;;;;;24.00;47.00;;;;;;491568;240;1192;-73
2022/07/30 11:55:00;;;;;;;;;;;23.90;46.90;;;;;;491669;240;1136;-73
2022/07/30 11:57:01;;;;;;;;;;;23.90;46.80;;;;;;491621;240;1211;-73